Time;durP1;ratioP1;P1;durP2;ratioP2;P2;SDS_P1;SDS_P2;PMS_P1;PMS_P2;Temp;Humidity;BMP_temperature;BMP_pressure;BME280_temperature;BME280_humidity;BME280_pressure;Samples;Min_cycle;Max_cycle;Signal;HPM_P1;HPM_P2
2023/05/05 00:00:20;;;;;;;36.30;20.50;;;;;;;13.33;100.00;100439.09;5043640;28;20036;-31
2023/05/05 00:02:46;;;;;;;33.72;20.25;;;;;;;13.29;100.00;100434.41;5045272;28;20018;-31
2023/05/05 00:05:11;;;;;;;35.42;20.15;;;;;;;13.18;100.00;100433.31;5061680;28;20028;-32
2023/05/05 00:07:37;;;;;;;33.88;19.67;;;;;;;13.14;100.00;100430.25;5064745;28;20794;-31
2023/05/05 00:10:03;;;;;;;35.85;20.90;;;;;;;13.17;100.00;100420.94;5068394;28;20049;-31
2023/05/05 00:12:29;;;;;;;33.88;19.33;;;;;;;13.24;100.00;100422.50;5068595;28;20514;-31
2023/05/05 00:14:54;;;;;;;37.70;20.73;;;;;;;13.36;100.00;100416.38;5067905;28;20028;-31
2023/05/05 00:17:19;;;;;;;36.65;20.08;;;;;;;13.62;100.00;100418.66;5068352;28;20020;-31
2023/05/05 00:19:45;;;;;;;36.33;20.95;;;;;;;13.63;100.00;100416.81;5068110;28;20522;-31
2023/05/05 00:22:10;;;;;;;36.95;18.98;;;;;;;13.38;100.00;100409.78;5056356;28;20025;-31
2023/05/05 00:24:36;;;;;;;33.75;19.30;;;;;;;13.15;100.00;100402.44;5048634;28;20090;-31
2023/05/05 00:27:02;;;;;;;33.75;18.73;;;;;;;13.31;100.00;100413.59;5048433;28;20053;-31
2023/05/05 00:29:28;;;;;;;34.08;20.02;;;;;;;13.41;100.00;100416.53;5048559;28;20029;-31
2023/05/05 00:31:55;;;;;;;34.15;19.10;;;;;;;13.60;100.00;100414.59;5047839;28;20040;-31
2023/05/05 00:34:20;;;;;;;34.50;19.80;;;;;;;13.76;100.00;100418.47;5048171;28;20581;-30
2023/05/05 00:36:46;;;;;;;32.95;18.30;;;;;;;13.78;100.00;100413.69;5051235;28;20140;-33
2023/05/05 00:39:11;;;;;;;32.80;18.73;;;;;;;13.78;100.00;100417.19;5068376;28;20073;-31
2023/05/05 00:41:37;;;;;;;34.13;19.33;;;;;;;13.76;100.00;100413.09;5068149;28;20024;-32
2023/05/05 00:44:02;;;;;;;37.20;20.23;;;;;;;13.78;100.00;100400.28;5066760;28;20063;-31
2023/05/05 00:46:30;;;;;;;35.85;20.40;;;;;;;13.68;100.00;100383.97;5067962;28;20778;-32
2023/05/05 00:48:57;;;;;;;34.13;19.85;;;;;;;13.81;100.00;100411.38;5066837;28;20028;-31
2023/05/05 00:51:24;;;;;;;34.63;20.17;;;;;;;13.61;100.00;100394.78;5055245;28;20429;-32
2023/05/05 00:53:50;;;;;;;39.80;21.87;;;;;;;13.74;100.00;100410.66;5051124;28;20111;-31
2023/05/05 00:56:20;;;;;;;34.67;19.98;;;;;;;13.65;100.00;100396.78;5068109;28;20436;-31
2023/05/05 00:58:46;;;;;;;34.95;19.58;;;;;;;13.57;100.00;100391.75;5068490;28;20029;-30
2023/05/05 01:01:12;;;;;;;34.63;19.45;;;;;;;13.58;100.00;100396.03;5067636;28;20732;-31
2023/05/05 01:03:40;;;;;;;36.47;20.00;;;;;;;13.56;100.00;100390.09;5068180;28;20107;-32
2023/05/05 01:06:14;;;;;;;34.55;19.35;;;;;;;13.60;100.00;100388.59;5067831;28;20107;-33
2023/05/05 01:08:52;;;;;;;34.13;19.65;;;;;;;13.53;100.00;100385.22;5067631;28;20462;-31
2023/05/05 01:11:55;;;;;;;34.00;19.40;;;;;;;13.50;100.00;100391.03;5067595;28;20035;-31
2023/05/05 01:14:38;;;;;;;34.67;19.10;;;;;;;13.39;100.00;100381.94;5064216;28;20029;-32
2023/05/05 01:17:13;;;;;;;36.15;19.58;;;;;;;13.45;100.00;100386.38;5067886;28;20028;-31
2023/05/05 01:20:01;;;;;;;32.65;19.27;;;;;;;13.55;100.00;100388.50;5067130;28;20158;-31
2023/05/05 01:22:35;;;;;;;39.72;20.88;;;;;;;13.60;100.00;100382.44;5067566;28;20033;-31
2023/05/05 01:25:19;;;;;;;38.38;20.30;;;;;;;13.57;100.00;100377.53;5067726;28;20033;-30
2023/05/05 01:28:13;;;;;;;34.63;20.50;;;;;;;13.55;100.00;100383.13;5067281;28;20024;-32
2023/05/05 01:30:48;;;;;;;37.33;20.00;;;;;;;13.52;100.00;100380.88;5067409;28;20056;-31
2023/05/05 01:33:17;;;;;;;38.38;20.73;;;;;;;13.58;100.00;100373.81;5067288;28;20618;-31
2023/05/05 01:35:49;;;;;;;32.85;19.70;;;;;;;13.50;100.00;100374.13;5067496;28;20039;-32
2023/05/05 01:38:19;;;;;;;35.75;20.77;;;;;;;13.57;100.00;100372.19;5067359;28;20024;-30
2023/05/05 01:40:48;;;;;;;35.63;19.83;;;;;;;13.59;100.00;100349.47;5066968;28;20051;-31
2023/05/05 01:43:17;;;;;;;34.88;20.58;;;;;;;13.63;100.00;100372.06;5067050;28;20048;-32
2023/05/05 01:45:45;;;;;;;35.63;20.17;;;;;;;13.65;100.00;100364.63;5067300;28;20043;-32
2023/05/05 01:48:14;;;;;;;38.13;21.13;;;;;;;13.78;100.00;100360.88;5067069;28;20036;-31
2023/05/05 01:50:40;;;;;;;38.45;20.45;;;;;;;13.62;100.00;100340.94;5066926;28;20087;-31
2023/05/05 01:53:08;;;;;;;34.38;19.50;;;;;;;13.52;100.00;100346.06;5066846;28;20025;-32
2023/05/05 01:55:35;;;;;;;37.08;21.13;;;;;;;13.22;100.00;100360.31;5066941;28;20029;-31
2023/05/05 01:58:04;;;;;;;36.85;21.45;;;;;;;13.00;100.00;100346.63;5067004;28;20025;-31
2023/05/05 02:00:31;;;;;;;33.80;20.13;;;;;;;12.96;100.00;100360.69;5066887;28;20060;-32
2023/05/05 02:02:58;;;;;;;39.33;20.92;;;;;;;12.96;100.00;100339.28;5066726;28;20043;-32
2023/05/05 02:05:25;;;;;;;38.30;20.88;;;;;;;13.24;100.00;100358.22;5066411;28;20020;-31
2023/05/05 02:07:55;;;;;;;39.05;21.52;;;;;;;13.39;100.00;100355.13;5066583;28;20020;-32
2023/05/05 02:10:20;;;;;;;36.80;21.75;;;;;;;13.51;100.00;100352.47;5066686;28;20075;-31
2023/05/05 02:12:46;;;;;;;35.38;21.25;;;;;;;13.51;100.00;100354.34;5066549;28;20078;-33
2023/05/05 02:15:13;;;;;;;35.42;20.35;;;;;;;13.49;100.00;100365.28;5066366;28;20028;-32
2023/05/05 02:17:45;;;;;;;37.67;20.67;;;;;;;13.43;100.00;100364.34;5066366;28;20036;-31
2023/05/05 02:20:12;;;;;;;37.25;20.50;;;;;;;13.29;100.00;100349.53;5066293;28;20131;-32
2023/05/05 02:22:39;;;;;;;39.20;21.52;;;;;;;13.31;100.00;100362.69;5066374;28;20039;-31
2023/05/05 02:25:05;;;;;;;37.00;22.50;;;;;;;13.34;100.00;100362.22;5066355;28;20240;-31
2023/05/05 02:27:33;;;;;;;38.63;21.55;;;;;;;13.44;100.00;100341.03;5066231;28;20491;-31
2023/05/05 02:30:05;;;;;;;39.65;22.42;;;;;;;13.52;100.00;100339.91;5066154;28;20451;-31
2023/05/05 02:32:36;;;;;;;35.45;20.92;;;;;;;13.44;100.00;100347.25;5065133;28;20024;-32
2023/05/05 02:35:12;;;;;;;40.42;22.60;;;;;;;13.55;100.00;100358.19;5065691;28;20150;-31
2023/05/05 02:37:42;;;;;;;37.55;21.63;;;;;;;13.53;100.00;100361.09;5066172;28;20036;-31
2023/05/05 02:40:10;;;;;;;42.63;22.70;;;;;;;13.51;100.00;100336.41;5066034;28;20515;-31
2023/05/05 02:42:39;;;;;;;44.15;25.23;;;;;;;13.70;100.00;100339.78;5065930;28;20024;-31
2023/05/05 02:45:11;;;;;;;44.00;23.05;;;;;;;13.62;100.00;100354.34;5066200;28;20036;-32
2023/05/05 02:47:37;;;;;;;38.95;22.65;;;;;;;13.53;100.00;100339.66;5066074;28;20028;-30
2023/05/05 02:50:04;;;;;;;42.75;23.10;;;;;;;13.57;100.00;100356.09;5060203;28;20090;-31
2023/05/05 02:52:31;;;;;;;39.88;22.38;;;;;;;13.28;100.00;100331.81;5056512;28;20039;-31
2023/05/05 02:54:57;;;;;;;38.25;22.00;;;;;;;13.41;100.00;100355.72;5065561;28;20617;-30
2023/05/05 02:57:34;;;;;;;38.65;21.08;;;;;;;13.62;100.00;100334.78;5064852;28;20107;-31
2023/05/05 03:00:11;;;;;;;37.60;20.65;;;;;;;13.65;100.00;100343.16;5045601;28;20021;-31
2023/05/05 03:02:45;;;;;;;35.10;20.75;;;;;;;13.56;100.00;100344.56;5063484;28;20040;-31
2023/05/05 03:05:20;;;;;;;35.03;20.42;;;;;;;13.59;100.00;100344.09;5065920;28;20025;-31
2023/05/05 03:07:53;;;;;;;32.63;18.88;;;;;;;13.63;100.00;100347.94;5065695;28;20071;-32
2023/05/05 03:10:24;;;;;;;36.13;20.80;;;;;;;13.62;100.00;100332.91;5062481;28;20443;-30
2023/05/05 03:12:58;;;;;;;35.42;20.92;;;;;;;13.42;100.00;100333.25;5055793;28;20029;-31
2023/05/05 03:15:30;;;;;;;35.38;19.70;;;;;;;13.44;100.00;100335.69;5045837;28;20036;-32
2023/05/05 03:17:58;;;;;;;36.75;19.48;;;;;;;13.44;100.00;100333.00;5046135;28;20037;-30
2023/05/05 03:20:24;;;;;;;34.75;19.92;;;;;;;13.46;100.00;100355.03;5045269;28;20028;-31
2023/05/05 03:22:51;;;;;;;68.10;35.30;;;;;;;13.43;100.00;100358.19;5045261;28;20028;-31
2023/05/05 03:25:16;;;;;;;71.75;36.45;;;;;;;13.56;100.00;100355.25;5045337;28;20036;-32
2023/05/05 03:27:42;;;;;;;67.07;37.90;;;;;;;13.51;100.00;100362.38;5045356;28;20033;-30
2023/05/05 03:30:08;;;;;;;70.90;39.63;;;;;;;13.61;100.00;100368.81;5045108;28;20444;-31
2023/05/05 03:32:33;;;;;;;56.67;37.10;;;;;;;13.71;100.00;100356.69;5044969;28;20032;-31
2023/05/05 03:34:59;;;;;;;52.20;31.13;;;;;;;13.62;100.00;100370.41;5045631;28;20021;-30
2023/05/05 03:37:24;;;;;;;46.17;26.65;;;;;;;13.65;100.00;100369.97;5045241;28;20029;-32
2023/05/05 03:39:49;;;;;;;39.65;23.77;;;;;;;13.59;100.00;100370.91;5047048;28;20165;-33
2023/05/05 03:42:15;;;;;;;46.55;24.13;;;;;;;13.66;100.00;100371.59;5047118;28;20462;-33
2023/05/05 03:44:40;;;;;;;37.72;22.52;;;;;;;13.51;100.00;100375.78;5055404;28;20021;-31
2023/05/05 03:47:06;;;;;;;37.03;22.33;;;;;;;13.50;100.00;100382.19;5057722;28;20025;-31
2023/05/05 03:49:31;;;;;;;39.20;22.70;;;;;;;13.43;100.00;100388.47;5068675;28;20047;-32
2023/05/05 03:51:57;;;;;;;38.72;22.23;;;;;;;13.32;100.00;100391.09;5069323;28;20036;-31
2023/05/05 03:54:22;;;;;;;37.67;21.98;;;;;;;13.40;100.00;100388.94;5062791;28;20132;-31
2023/05/05 03:56:48;;;;;;;36.00;21.90;;;;;;;13.53;100.00;100387.91;5066293;28;20533;-31
2023/05/05 03:59:13;;;;;;;39.30;22.55;;;;;;;13.55;100.00;100388.50;5061284;28;20021;-31
2023/05/05 04:01:38;;;;;;;39.22;21.75;;;;;;;13.51;100.00;100390.00;5056885;28;20021;-32
2023/05/05 04:04:04;;;;;;;36.38;21.83;;;;;;;13.53;100.00;100395.94;5048938;28;20028;-31
2023/05/05 04:06:30;;;;;;;38.50;23.58;;;;;;;13.49;100.00;100397.44;5048899;28;20032;-33
2023/05/05 04:08:56;;;;;;;40.47;23.73;;;;;;;13.43;100.00;100393.00;5048704;28;20037;-31
2023/05/05 04:11:22;;;;;;;40.40;21.65;;;;;;;13.65;100.00;100398.66;5048699;28;20502;-30
2023/05/05 04:13:48;;;;;;;41.17;23.25;;;;;;;13.50;100.00;100382.97;5048395;28;20033;-31
2023/05/05 04:16:14;;;;;;;43.75;24.02;;;;;;;13.68;100.00;100411.56;5048704;28;20098;-31
2023/05/05 04:18:40;;;;;;;39.35;22.77;;;;;;;13.61;100.00;100389.44;5048802;28;20033;-30
2023/05/05 04:21:05;;;;;;;37.72;22.33;;;;;;;13.52;100.00;100401.50;5048277;28;20029;-32
2023/05/05 04:23:30;;;;;;;39.58;21.63;;;;;;;13.76;100.00;100411.22;5048779;28;20025;-31
2023/05/05 04:25:56;;;;;;;37.88;22.20;;;;;;;13.73;100.00;100410.88;5048381;28;20040;-32
2023/05/05 04:28:21;;;;;;;41.63;23.30;;;;;;;13.81;100.00;100414.03;5048646;28;20056;-31
2023/05/05 04:30:47;;;;;;;39.80;23.90;;;;;;;13.75;100.00;100406.09;5048115;28;20025;-31
2023/05/05 04:33:12;;;;;;;41.33;22.55;;;;;;;13.58;100.00;100416.69;5048319;28;20144;-35
2023/05/05 04:35:38;;;;;;;40.08;23.10;;;;;;;13.56;100.00;100411.53;5048256;28;20051;-34
2023/05/05 04:38:03;;;;;;;36.55;21.58;;;;;;;13.51;100.00;100411.44;5048504;28;20436;-30
2023/05/05 04:40:29;;;;;;;34.78;21.17;;;;;;;13.63;100.00;100403.41;5048088;28;20413;-30
2023/05/05 04:42:54;;;;;;;38.85;22.25;;;;;;;13.94;100.00;100399.59;5048128;28;20035;-30
2023/05/05 04:45:20;;;;;;;38.83;22.92;;;;;;;14.03;100.00;100395.50;5048282;28;20086;-31
2023/05/05 04:47:46;;;;;;;38.13;22.35;;;;;;;13.90;100.00;100414.50;5048004;28;20440;-31
2023/05/05 04:50:12;;;;;;;39.35;22.45;;;;;;;14.00;100.00;100409.38;5048039;28;20428;-32
2023/05/05 04:52:38;;;;;;;37.42;23.08;;;;;;;14.19;100.00;100411.94;5048011;28;20025;-32
2023/05/05 04:55:04;;;;;;;41.95;22.92;;;;;;;14.15;100.00;100410.78;5047203;28;20090;-31
2023/05/05 04:57:30;;;;;;;42.20;24.42;;;;;;;14.35;100.00;100407.75;5047831;28;20025;-30
2023/05/05 04:59:55;;;;;;;42.47;23.88;;;;;;;14.40;100.00;100414.00;5061620;28;20483;-31
2023/05/05 05:02:21;;;;;;;44.83;26.13;;;;;;;14.37;100.00;100409.13;5067770;28;20032;-30
2023/05/05 05:04:46;;;;;;;45.70;25.20;;;;;;;14.56;100.00;100403.66;5067657;28;20789;-30
2023/05/05 05:07:13;;;;;;;42.85;25.08;;;;;;;14.45;100.00;100413.31;5067739;28;20029;-31
2023/05/05 05:09:39;;;;;;;41.05;22.52;;;;;;;14.61;100.00;100409.94;5067473;28;20047;-30
2023/05/05 05:12:06;;;;;;;42.55;24.05;;;;;;;14.69;100.00;100411.44;5067661;28;20032;-32
2023/05/05 05:14:41;;;;;;;39.35;23.63;;;;;;;14.68;100.00;100409.81;5067659;28;20036;-30
2023/05/05 05:17:06;;;;;;;39.47;23.52;;;;;;;14.97;100.00;100417.88;5067151;28;20058;-31
2023/05/05 05:19:32;;;;;;;39.00;23.23;;;;;;;14.99;100.00;100421.16;5067816;28;20283;-31
2023/05/05 05:21:57;;;;;;;37.92;21.85;;;;;;;14.90;100.00;100411.84;5067172;28;20431;-31
2023/05/05 05:24:24;;;;;;;36.90;20.98;;;;;;;14.68;100.00;100387.53;5067344;28;20749;-32
2023/05/05 05:26:50;;;;;;;34.00;20.75;;;;;;;15.06;100.00;100419.16;5067253;28;20024;-30
2023/05/05 05:29:15;;;;;;;33.05;18.95;;;;;;;15.19;100.00;100416.16;5067477;28;20024;-30
2023/05/05 05:31:41;;;;;;;31.55;18.15;;;;;;;15.11;100.00;100424.59;5067192;28;20032;-29
2023/05/05 05:34:06;;;;;;;29.30;18.65;;;;;;;15.13;100.00;100416.31;5067126;28;20407;-31
2023/05/05 05:36:32;;;;;;;32.17;18.95;;;;;;;15.20;100.00;100422.34;5066873;28;20051;-30
2023/05/05 05:38:57;;;;;;;31.02;18.13;;;;;;;15.28;100.00;100424.63;5067259;28;20031;-31
2023/05/05 05:41:22;;;;;;;31.45;18.20;;;;;;;15.31;100.00;100434.09;5067177;28;20470;-31
2023/05/05 05:43:48;;;;;;;31.92;17.77;;;;;;;15.30;100.00;100427.09;5055938;28;20031;-30
2023/05/05 05:46:13;;;;;;;30.30;18.58;;;;;;;15.29;100.00;100438.91;5055781;28;20036;-31
2023/05/05 05:48:39;;;;;;;27.88;16.63;;;;;;;15.28;100.00;100438.06;5054423;28;20025;-30
2023/05/05 05:51:05;;;;;;;31.00;17.30;;;;;;;15.30;100.00;100433.25;5050687;28;20033;-30
2023/05/05 05:53:30;;;;;;;27.75;15.98;;;;;;;15.46;100.00;100437.06;5062765;28;20089;-32
2023/05/05 05:55:56;;;;;;;26.45;16.95;;;;;;;15.59;100.00;100439.44;5066908;28;20137;-30
2023/05/05 05:58:21;;;;;;;27.40;16.50;;;;;;;15.59;100.00;100431.38;5066716;28;20032;-32
2023/05/05 06:00:47;;;;;;;25.75;15.85;;;;;;;15.57;100.00;100441.56;5066404;28;20097;-31
2023/05/05 06:03:13;;;;;;;25.02;14.85;;;;;;;15.46;100.00;100442.44;5066410;28;20055;-30
2023/05/05 06:05:38;;;;;;;24.88;14.88;;;;;;;15.72;100.00;100446.41;5066947;28;20033;-31
2023/05/05 06:08:04;;;;;;;22.92;14.30;;;;;;;15.65;100.00;100427.72;5066476;28;20428;-30
2023/05/05 06:10:29;;;;;;;22.15;13.95;;;;;;;15.79;100.00;100440.84;5066487;28;20056;-31
2023/05/05 06:12:55;;;;;;;21.02;13.18;;;;;;;15.82;100.00;100440.38;5066388;28;20021;-32
2023/05/05 06:15:20;;;;;;;20.88;12.93;;;;;;;16.05;100.00;100437.50;5066116;28;20085;-31
2023/05/05 06:17:46;;;;;;;23.70;13.32;;;;;;;16.00;100.00;100431.25;5066190;28;20024;-30
2023/05/05 06:20:12;;;;;;;19.65;12.55;;;;;;;16.12;100.00;100440.06;5066012;28;20024;-32
2023/05/05 06:22:38;;;;;;;23.27;13.68;;;;;;;16.03;100.00;100441.50;5066391;28;20556;-32
2023/05/05 06:25:04;;;;;;;24.27;13.93;;;;;;;16.13;100.00;100440.84;5065618;28;20498;-33
2023/05/05 06:27:29;;;;;;;23.38;13.23;;;;;;;16.19;100.00;100437.19;5065156;28;20042;-31
2023/05/05 06:29:54;;;;;;;18.20;11.38;;;;;;;16.39;99.96;100434.78;5064526;28;20029;-32
2023/05/05 06:32:20;;;;;;;16.95;10.60;;;;;;;16.81;97.87;100428.88;5064709;28;20039;-31
2023/05/05 06:34:47;;;;;;;12.65;8.52;;;;;;;16.81;93.39;100436.94;5065599;28;20411;-32
2023/05/05 06:37:12;;;;;;;14.93;8.15;;;;;;;16.45;93.85;100439.16;5064990;28;20024;-30
2023/05/05 06:39:38;;;;;;;12.90;8.63;;;;;;;16.34;94.75;100436.56;5066058;28;20044;-33
2023/05/05 06:42:03;;;;;;;12.10;7.93;;;;;;;16.19;95.60;100448.75;5065884;28;20451;-32
2023/05/05 06:44:29;;;;;;;12.88;8.15;;;;;;;16.36;95.10;100446.03;5065587;28;20032;-30
2023/05/05 06:46:55;;;;;;;12.40;8.63;;;;;;;16.59;94.91;100439.63;5065384;28;20125;-31
2023/05/05 06:49:21;;;;;;;13.98;8.18;;;;;;;16.87;92.61;100440.53;5065246;28;20494;-31
2023/05/05 06:51:47;;;;;;;13.45;7.95;;;;;;;16.74;92.83;100433.59;5065308;28;20472;-31
2023/05/05 06:54:12;;;;;;;12.88;7.95;;;;;;;16.79;93.13;100416.69;5065438;28;20020;-30
2023/05/05 06:56:38;;;;;;;12.32;7.60;;;;;;;16.94;91.48;100424.16;5065502;28;20021;-31
2023/05/05 06:59:03;;;;;;;11.60;7.70;;;;;;;16.78;93.06;100429.34;5065403;28;20058;-31
2023/05/05 07:01:28;;;;;;;12.63;8.38;;;;;;;16.77;92.52;100425.00;5065377;28;20043;-31
2023/05/05 07:03:54;;;;;;;12.48;8.20;;;;;;;17.19;93.61;100424.44;5065767;28;20083;-31
2023/05/05 07:06:20;;;;;;;14.10;9.02;;;;;;;17.51;94.37;100415.59;5065514;28;20031;-33
2023/05/05 07:08:46;;;;;;;11.52;7.75;;;;;;;17.58;91.84;100426.97;5065459;28;20044;-31
2023/05/05 07:11:11;;;;;;;11.18;7.57;;;;;;;17.41;90.09;100429.78;5065508;28;20482;-31
2023/05/05 07:13:36;;;;;;;14.23;7.95;;;;;;;17.67;90.23;100427.31;5065708;28;20124;-31
2023/05/05 07:16:02;;;;;;;10.10;7.03;;;;;;;17.71;88.73;100422.22;5065352;28;20029;-30
2023/05/05 07:18:27;;;;;;;11.25;7.03;;;;;;;17.69;91.29;100425.16;5057993;28;20040;-31
2023/05/05 07:20:53;;;;;;;12.27;6.80;;;;;;;17.53;87.38;100416.16;5045053;28;20475;-31
2023/05/05 07:23:18;;;;;;;11.05;6.40;;;;;;;17.53;89.49;100429.63;5045700;28;20060;-30
2023/05/05 07:25:44;;;;;;;9.60;6.97;;;;;;;17.94;89.88;100430.00;5045322;28;20025;-30
2023/05/05 07:28:10;;;;;;;17.38;8.07;;;;;;;18.25;88.19;100424.78;5045458;28;20036;-32
2023/05/05 07:30:35;;;;;;;12.10;6.65;;;;;;;18.47;83.29;100425.44;5045402;28;20128;-31
2023/05/05 07:33:01;;;;;;;12.27;6.78;;;;;;;18.44;83.83;100431.38;5045586;28;20033;-30
2023/05/05 07:35:27;;;;;;;10.55;6.47;;;;;;;17.93;83.79;100431.03;5045552;28;20025;-30
2023/05/05 07:37:52;;;;;;;14.40;7.13;;;;;;;18.27;82.81;100438.84;5045508;28;20029;-32
2023/05/05 07:40:18;;;;;;;10.30;7.07;;;;;;;18.25;82.83;100428.31;5045265;28;20055;-32
2023/05/05 07:42:43;;;;;;;11.35;7.03;;;;;;;18.45;84.64;100433.00;5045214;28;20048;-31
2023/05/05 07:45:09;;;;;;;9.60;6.80;;;;;;;18.82;79.56;100437.53;5045154;28;20051;-30
2023/05/05 07:47:35;;;;;;;11.70;6.57;;;;;;;18.97;78.18;100430.53;5045110;28;20415;-31
2023/05/05 07:50:00;;;;;;;10.13;6.75;;;;;;;19.16;77.51;100431.66;5047661;28;20033;-31
2023/05/05 07:52:26;;;;;;;11.52;7.03;;;;;;;18.83;78.63;100433.72;5045186;28;20044;-31
2023/05/05 07:54:51;;;;;;;12.00;7.28;;;;;;;19.14;81.32;100439.22;5045074;28;20029;-31
2023/05/05 07:57:17;;;;;;;10.10;6.15;;;;;;;19.36;78.30;100435.50;5045255;28;20028;-31
2023/05/05 07:59:42;;;;;;;10.68;7.05;;;;;;;19.49;77.71;100429.53;5045116;28;20090;-31
2023/05/05 08:02:14;;;;;;;13.10;7.50;;;;;;;19.86;74.34;100433.94;5044882;28;20024;-30
2023/05/05 08:04:40;;;;;;;9.48;6.72;;;;;;;19.80;71.90;100440.44;5045203;28;20037;-31
2023/05/05 08:07:06;;;;;;;15.68;6.82;;;;;;;19.71;71.43;100428.50;5044894;28;20033;-30
2023/05/05 08:09:33;;;;;;;11.13;6.07;;;;;;;19.73;68.19;100440.69;5044756;28;20512;-30
2023/05/05 08:12:00;;;;;;;11.77;6.35;;;;;;;19.74;69.75;100436.09;5045095;28;20500;-30
2023/05/05 08:14:25;;;;;;;13.10;6.38;;;;;;;19.61;69.70;100432.00;5045120;28;20052;-31
2023/05/05 08:16:51;;;;;;;11.07;5.97;;;;;;;19.73;69.75;100432.56;5044666;28;20064;-30
2023/05/05 08:19:16;;;;;;;9.45;5.75;;;;;;;19.66;68.36;100427.41;5044858;28;20032;-31
2023/05/05 08:21:42;;;;;;;9.63;5.20;;;;;;;19.67;69.40;100423.59;5044634;28;20038;-31
2023/05/05 08:24:07;;;;;;;10.63;5.85;;;;;;;19.82;69.63;100432.84;5045237;28;20041;-30
2023/05/05 08:26:33;;;;;;;8.82;5.72;;;;;;;20.04;69.36;100419.84;5044738;28;20063;-30
2023/05/05 08:28:59;;;;;;;11.13;5.57;;;;;;;19.87;66.61;100419.31;5044781;28;20013;-32
2023/05/05 08:31:31;;;;;;;9.27;5.20;;;;;;;20.25;65.57;100426.00;5048478;28;20025;-31
2023/05/05 08:33:57;;;;;;;7.80;5.00;;;;;;;19.93;68.29;100423.63;5048168;28;20059;-31
2023/05/05 08:36:22;;;;;;;8.48;4.72;;;;;;;20.03;67.19;100422.81;5048612;28;20460;-30
2023/05/05 08:38:48;;;;;;;9.43;5.45;;;;;;;20.50;66.21;100424.31;5048389;28;20585;-31
2023/05/05 08:41:16;;;;;;;7.35;4.82;;;;;;;20.21;67.06;100426.84;5048577;28;20032;-31
2023/05/05 08:43:43;;;;;;;8.30;4.82;;;;;;;20.35;62.70;100430.59;5048139;28;20029;-31
2023/05/05 08:46:11;;;;;;;8.10;5.03;;;;;;;20.16;64.79;100426.84;5048158;28;20025;-31
2023/05/05 08:48:37;;;;;;;;;;;;;;;20.35;61.00;100436.03;5048738;28;20569;-30
2023/05/05 08:51:05;;;;;;;8.05;4.78;;;;;;;20.83;62.70;100414.72;5047788;28;19912;-33
2023/05/05 08:53:45;;;;;;;8.82;5.25;;;;;;;21.16;61.77;100415.06;5047987;28;20029;-33
2023/05/05 08:56:13;;;;;;;8.95;5.10;;;;;;;20.93;62.57;100396.78;5048190;28;20029;-33
2023/05/05 08:58:40;;;;;;;8.85;5.63;;;;;;;20.93;61.68;100410.34;5047932;28;20052;-33
2023/05/05 09:01:06;;;;;;;8.48;5.43;;;;;;;20.43;62.41;100421.06;5048029;28;20041;-33
2023/05/05 09:03:34;;;;;;;8.40;4.90;;;;;;;19.98;63.19;100423.63;5048007;28;20054;-33
2023/05/05 09:06:00;;;;;;;8.25;5.05;;;;;;;20.25;61.54;100411.66;5047646;28;20032;-34
2023/05/05 09:08:26;;;;;;;7.93;5.40;;;;;;;20.17;62.27;100418.44;5047689;28;20052;-34
2023/05/05 09:10:53;;;;;;;10.77;5.28;;;;;;;20.29;61.37;100420.88;5047819;28;20132;-33
2023/05/05 09:13:20;;;;;;;7.40;4.60;;;;;;;19.98;63.36;100420.94;5048059;28;20074;-35
2023/05/05 09:15:46;;;;;;;8.02;5.20;;;;;;;19.65;62.30;100425.75;5047764;28;20124;-31
2023/05/05 09:18:11;;;;;;;8.88;5.45;;;;;;;19.70;61.96;100424.97;5047702;28;20127;-30
2023/05/05 09:20:38;;;;;;;9.13;5.20;;;;;;;19.83;61.39;100424.44;5047774;28;20032;-31
2023/05/05 09:23:12;;;;;;;8.57;4.88;;;;;;;20.10;59.90;100425.22;5047346;28;20210;-31
2023/05/05 09:25:40;;;;;;;7.72;4.68;;;;;;;19.85;60.68;100422.28;5047721;28;20025;-31
2023/05/05 09:28:10;;;;;;;7.72;5.05;;;;;;;19.51;61.24;100405.75;5047579;28;20462;-32
2023/05/05 09:30:37;;;;;;;9.00;5.13;;;;;;;19.24;64.12;100409.50;5047434;28;20063;-31
2023/05/05 09:33:02;;;;;;;7.80;4.95;;;;;;;19.76;62.92;100413.09;5047247;28;20041;-31
2023/05/05 09:35:47;;;;;;;8.25;4.97;;;;;;;20.02;58.56;100400.34;5047471;28;20415;-31
2023/05/05 09:38:12;;;;;;;10.88;5.10;;;;;;;20.14;59.16;100401.94;5047112;28;20029;-31
2023/05/05 09:40:49;;;;;;;8.55;5.20;;;;;;;19.87;61.59;100408.47;5046649;28;20086;-32
2023/05/05 09:43:15;;;;;;;8.50;4.63;;;;;;;20.22;59.17;100412.22;5047057;28;20397;-31
2023/05/05 09:45:42;;;;;;;9.23;5.15;;;;;;;20.09;59.16;100393.84;5047304;28;20053;-32
2023/05/05 09:48:09;;;;;;;8.05;5.25;;;;;;;20.10;59.24;100398.97;5047023;28;20111;-31
2023/05/05 09:50:42;;;;;;;7.78;5.13;;;;;;;19.91;59.59;100390.63;5047341;28;20538;-31
2023/05/05 09:53:09;;;;;;;9.70;5.32;;;;;;;20.14;61.76;100380.28;5046755;28;20420;-31
2023/05/05 09:55:35;;;;;;;10.30;5.07;;;;;;;20.40;57.41;100392.66;5046900;28;20033;-32
2023/05/05 09:58:17;;;;;;;6.93;4.50;;;;;;;20.48;56.32;100397.50;5047212;28;20720;-31
2023/05/05 10:00:43;;;;;;;6.85;4.53;;;;;;;20.66;57.96;100392.59;5046764;28;20029;-31
2023/05/05 10:03:08;;;;;;;8.32;5.10;;;;;;;20.81;57.48;100384.38;5046543;28;20039;-32
2023/05/05 10:05:46;;;;;;;7.15;4.72;;;;;;;20.98;54.05;100366.91;5046955;28;20116;-32
2023/05/05 10:08:12;;;;;;;8.55;5.35;;;;;;;21.37;55.81;100376.94;5046980;28;20036;-31
2023/05/05 10:10:55;;;;;;;9.57;4.40;;;;;;;21.91;50.85;100370.53;5046447;28;20032;-32
2023/05/05 10:13:23;;;;;;;6.70;4.43;;;;;;;22.48;50.63;100369.94;5046712;28;20020;-31
2023/05/05 10:15:50;;;;;;;6.55;4.22;;;;;;;23.29;49.64;100367.19;5046623;28;20024;-31
2023/05/05 10:18:30;;;;;;;7.20;4.30;;;;;;;23.55;46.06;100353.97;5046445;28;20457;-32
2023/05/05 10:20:57;;;;;;;7.57;4.25;;;;;;;23.53;44.91;100356.97;5046982;28;20443;-31
2023/05/05 10:23:26;;;;;;;;;;;;;;;23.86;51.62;100359.69;5046700;28;20128;-31
2023/05/05 10:26:04;;;;;;;6.22;3.47;;;;;;;23.92;42.99;100354.97;5046289;28;19912;-32
2023/05/05 10:28:55;;;;;;;;;;;;;;;24.02;44.86;100360.22;5046807;28;20025;-31
2023/05/05 10:31:42;;;;;;;6.75;4.13;;;;;;;24.43;42.65;100357.47;5022248;28;19920;-31
2023/05/05 10:34:11;;;;;;;6.38;3.78;;;;;;;24.32;44.27;100352.56;5046374;28;20108;-32
2023/05/05 10:36:38;;;;;;;6.28;3.88;;;;;;;24.27;43.45;100334.38;5045976;28;20488;-32
2023/05/05 10:39:05;;;;;;;5.90;4.07;;;;;;;24.05;44.41;100327.75;5046361;28;20029;-32
2023/05/05 10:41:32;;;;;;;6.60;3.60;;;;;;;24.33;42.62;100338.59;5046144;28;20037;-31
2023/05/05 10:43:58;;;;;;;7.55;3.85;;;;;;;24.35;44.49;100339.13;5045981;28;20036;-33
2023/05/05 10:46:28;;;;;;;6.82;4.07;;;;;;;25.14;41.32;100340.66;5046120;28;20037;-32
2023/05/05 10:49:03;;;;;;;7.03;4.32;;;;;;;25.17;44.92;100315.50;5045949;28;20537;-31
2023/05/05 10:51:47;;;;;;;7.88;4.68;;;;;;;25.76;42.68;100329.00;5045642;28;20033;-33
2023/05/05 10:54:31;;;;;;;6.35;3.70;;;;;;;25.82;40.04;100326.94;5045900;28;20052;-31
2023/05/05 10:57:00;;;;;;;16.95;11.05;;;;;;;24.91;40.19;100314.47;5045588;28;20047;-31
2023/05/05 10:59:37;;;;;;;6.03;3.42;;;;;;;25.75;40.82;100329.34;5046077;28;20037;-31
2023/05/05 11:02:19;;;;;;;7.47;3.92;;;;;;;25.12;44.03;100317.53;5046120;28;20037;-31
2023/05/05 11:05:04;;;;;;;7.63;4.15;;;;;;;25.40;40.12;100313.56;5045875;28;20059;-32
2023/05/05 11:07:31;;;;;;;7.72;3.65;;;;;;;25.32;40.71;100295.22;5045962;28;20052;-32
2023/05/05 11:10:01;;;;;;;5.45;3.55;;;;;;;25.03;44.43;100309.28;5045723;28;20543;-32
2023/05/05 11:12:28;;;;;;;8.80;4.05;;;;;;;24.16;43.05;100308.47;5045228;28;20094;-31